Time;durP1;ratioP1;P1;durP2;ratioP2;P2;SDS_P1;SDS_P2;PMS_P1;PMS_P2;Temp;Humidity;BMP_temperature;BMP_pressure;BME280_temperature;BME280_humidity;BME280_pressure;Samples;Min_cycle;Max_cycle;Signal;HPM_P1;HPM_P2
2022/07/14 00:00:07;;;;;;;0.00;0.00;;;22.10;99.90;226.50;231333.00;;;;5074203;28;20206;-71
2022/07/14 00:02:36;;;;;;;0.00;0.00;;;22.00;99.90;226.50;231333.00;;;;5074060;28;20186;-71
2022/07/14 00:05:06;;;;;;;0.00;0.00;;;22.00;99.90;226.50;231333.00;;;;5073343;28;20228;-72
2022/07/14 00:07:34;;;;;;;0.00;0.00;;;21.80;99.90;226.50;231333.00;;;;5074503;28;20190;-73
2022/07/14 00:10:04;;;;;;;0.00;0.00;;;21.70;99.90;226.50;231333.00;;;;5073662;28;20225;-73
2022/07/14 00:12:32;;;;;;;0.00;0.00;;;21.60;99.90;226.50;231333.00;;;;5074741;28;20193;-73
2022/07/14 00:15:01;;;;;;;0.00;0.00;;;21.60;99.90;226.50;231333.00;;;;5077384;28;20312;-72
2022/07/14 00:17:29;;;;;;;0.00;0.00;;;21.50;99.90;226.50;231333.00;;;;5076710;28;20178;-72
2022/07/14 00:19:58;;;;;;;0.00;0.00;;;21.60;99.90;226.50;231333.00;;;;5075686;28;20210;-73
2022/07/14 00:22:27;;;;;;;0.00;0.00;;;21.30;99.90;226.50;231333.00;;;;5075453;28;20197;-72
2022/07/14 00:24:55;;;;;;;0.00;0.00;;;21.20;99.90;226.50;231333.00;;;;5075456;28;20182;-73
2022/07/14 00:27:23;;;;;;;0.00;0.00;;;21.00;99.90;226.50;231333.00;;;;5075353;28;20186;-72
2022/07/14 00:29:51;;;;;;;0.00;0.00;;;21.00;99.90;226.50;231333.00;;;;5075181;28;20224;-72
2022/07/14 00:32:19;;;;;;;0.00;0.00;;;21.00;99.90;226.50;231333.00;;;;5075534;28;20182;-73
2022/07/14 00:34:47;;;;;;;0.00;0.00;;;21.00;99.90;226.50;231333.00;;;;5075117;28;20220;-72
2022/07/14 00:37:17;;;;;;;0.00;0.00;;;20.90;99.90;226.50;231333.00;;;;5073840;28;20194;-72
2022/07/14 00:39:56;;;;;;;0.00;0.00;;;21.00;99.90;226.50;231333.00;;;;5075149;28;20259;-72
2022/07/14 00:42:34;;;;;;;0.00;0.00;;;21.00;99.90;226.50;231333.00;;;;5075087;28;20178;-72
2022/07/14 00:45:05;;;;;;;0.00;0.00;;;21.00;99.90;226.50;231333.00;;;;5074546;28;20198;-72
2022/07/14 00:47:34;;;;;;;0.00;0.00;;;21.00;99.90;226.50;231333.00;;;;5074729;28;20717;-72
2022/07/14 00:50:05;;;;;;;0.00;0.00;;;21.00;99.90;226.50;231333.00;;;;5074700;28;20209;-72
2022/07/14 00:52:42;;;;;;;0.00;0.00;;;21.00;99.90;226.50;231333.00;;;;5074553;28;20210;-71
2022/07/14 00:55:13;;;;;;;0.00;0.00;;;20.90;99.90;226.50;231333.00;;;;5087114;28;20249;-72
2022/07/14 00:57:42;;;;;;;0.00;0.00;;;20.80;99.90;226.50;231333.00;;;;5055306;28;20189;-72
2022/07/14 01:00:14;;;;;;;0.00;0.00;;;20.80;99.90;226.50;231333.00;;;;5053913;28;20770;-72
2022/07/14 01:02:44;;;;;;;0.00;0.00;;;20.80;99.90;226.50;231333.00;;;;5054785;28;20198;-73
2022/07/14 01:05:12;;;;;;;0.00;0.00;;;20.70;99.90;226.50;231333.00;;;;5069365;28;20201;-72
2022/07/14 01:07:42;;;;;;;0.00;0.00;;;20.60;99.90;226.50;231333.00;;;;5074416;28;20427;-73
2022/07/14 01:10:12;;;;;;;0.00;0.00;;;20.50;99.90;226.50;231333.00;;;;5075079;28;20217;-72
2022/07/14 01:12:44;;;;;;;0.00;0.00;;;20.50;99.90;226.50;231333.00;;;;5075234;28;20197;-73
2022/07/14 01:15:15;;;;;;;0.00;0.00;;;20.70;99.90;226.50;231333.00;;;;5064202;28;20226;-73
2022/07/14 01:17:43;;;;;;;0.00;0.00;;;20.80;99.90;226.50;231333.00;;;;5071659;28;20229;-73
2022/07/14 01:20:12;;;;;;;0.00;0.00;;;20.40;99.90;226.50;231333.00;;;;5056661;28;20296;-71
2022/07/14 01:22:42;;;;;;;0.00;0.00;;;20.30;99.90;226.50;231333.00;;;;5080596;28;20178;-72
2022/07/14 01:25:12;;;;;;;0.00;0.00;;;20.20;99.90;226.50;231333.00;;;;5082303;28;20186;-74
2022/07/14 01:27:40;;;;;;;0.00;0.00;;;20.20;99.90;226.50;231333.00;;;;5075637;28;20681;-72
2022/07/14 01:30:10;;;;;;;0.00;0.00;;;20.10;99.90;226.50;231333.00;;;;5074524;28;20202;-73
2022/07/14 01:32:39;;;;;;;0.00;0.00;;;20.10;99.90;226.50;231333.00;;;;5074895;28;20584;-72
2022/07/14 01:35:08;;;;;;;0.00;0.00;;;20.10;99.90;226.50;231333.00;;;;5074148;28;20283;-71
2022/07/14 01:37:37;;;;;;;0.00;0.00;;;20.10;99.90;226.50;231333.00;;;;5073625;28;20197;-72
2022/07/14 01:40:11;;;;;;;0.00;0.00;;;20.00;99.90;226.50;231333.00;;;;5089601;28;20214;-72
2022/07/14 01:42:41;;;;;;;0.00;0.00;;;19.90;99.90;226.50;231333.00;;;;5074450;28;20765;-72
2022/07/14 01:45:12;;;;;;;0.00;0.00;;;20.00;99.90;226.50;231333.00;;;;5072427;28;20267;-71
2022/07/14 01:47:41;;;;;;;0.00;0.00;;;19.90;99.90;226.50;231333.00;;;;5072896;28;20201;-75
2022/07/14 01:50:10;;;;;;;0.00;0.00;;;19.90;99.90;226.50;231333.00;;;;5073073;28;20213;-72
2022/07/14 01:52:40;;;;;;;0.00;0.00;;;19.90;99.90;226.50;231333.00;;;;5072766;28;20248;-72
2022/07/14 01:55:10;;;;;;;0.00;0.00;;;19.90;99.90;226.50;231333.00;;;;5072291;28;20240;-72
2022/07/14 01:57:39;;;;;;;0.00;0.00;;;19.90;99.90;226.50;231333.00;;;;5074123;28;20166;-72
2022/07/14 02:00:10;;;;;;;0.00;0.00;;;19.90;99.90;226.50;231333.00;;;;5073183;28;20221;-72
2022/07/14 02:02:58;;;;;;;0.00;0.00;;;19.70;99.90;226.50;231333.00;;;;5072783;28;20208;-72
2022/07/14 02:05:27;;;;;;;0.00;0.00;;;19.80;99.90;226.50;231333.00;;;;5072554;28;20254;-72
2022/07/14 02:07:56;;;;;;;0.00;0.00;;;19.70;99.90;226.50;231333.00;;;;5074036;28;20571;-71
2022/07/14 02:13:16;;;;;;;0.00;0.00;;;19.40;99.90;226.50;231333.00;;;;5072358;28;20288;-72
2022/07/14 02:15:44;;;;;;;0.00;0.00;;;19.30;99.90;226.50;231333.00;;;;5072095;28;20218;-72
2022/07/14 02:18:14;;;;;;;0.00;0.00;;;19.30;99.90;226.50;231333.00;;;;5072060;28;20205;-71
2022/07/14 02:20:45;;;;;;;0.00;0.00;;;19.30;99.90;226.50;231333.00;;;;5071927;28;20695;-72
2022/07/14 02:23:13;;;;;;;0.00;0.00;;;19.30;99.90;226.50;231333.00;;;;5071810;28;20181;-72
2022/07/14 02:25:42;;;;;;;0.00;0.00;;;19.30;99.90;226.50;231333.00;;;;5071610;28;20645;-72
2022/07/14 02:28:10;;;;;;;0.00;0.00;;;19.50;99.90;226.50;231333.00;;;;5073333;28;20178;-71
2022/07/14 02:30:38;;;;;;;0.00;0.00;;;19.50;99.90;226.50;231333.00;;;;5073543;28;20577;-71
2022/07/14 02:33:07;;;;;;;0.00;0.00;;;19.50;99.90;226.50;231333.00;;;;5071805;28;20194;-72
2022/07/14 02:35:36;;;;;;;0.00;0.00;;;19.50;99.90;226.50;231333.00;;;;5071607;28;20206;-72
2022/07/14 02:38:04;;;;;;;0.00;0.00;;;19.50;99.90;226.50;231333.00;;;;5090606;28;20205;-73
2022/07/14 02:40:33;;;;;;;0.00;0.00;;;19.40;99.90;226.50;231333.00;;;;5091853;28;20212;-73
2022/07/14 02:43:03;;;;;;;0.00;0.00;;;19.40;99.90;226.50;231333.00;;;;5091953;28;20266;-73
2022/07/14 02:45:31;;;;;;;0.00;0.00;;;19.40;99.90;226.50;231333.00;;;;5091756;28;20243;-73
2022/07/14 02:47:59;;;;;;;0.00;0.00;;;19.50;99.90;226.50;231333.00;;;;5093013;28;20595;-72
2022/07/14 02:50:28;;;;;;;0.00;0.00;;;19.60;99.90;226.50;231333.00;;;;5091531;28;20212;-73
2022/07/14 02:52:56;;;;;;;0.00;0.00;;;19.60;99.90;226.50;231333.00;;;;5093332;28;20186;-73
2022/07/14 02:55:31;;;;;;;0.00;0.00;;;19.60;99.90;226.50;231333.00;;;;5070635;28;20278;-72
2022/07/14 02:57:59;;;;;;;0.00;0.00;;;19.50;99.90;226.50;231333.00;;;;5071967;28;20235;-72
2022/07/14 03:00:28;;;;;;;0.00;0.00;;;19.50;99.90;226.50;231333.00;;;;5071398;28;20253;-73
2022/07/14 03:03:00;;;;;;;0.00;0.00;;;19.50;99.90;226.50;231333.00;;;;5074249;28;20194;-72
2022/07/14 03:05:28;;;;;;;0.00;0.00;;;19.50;99.90;226.50;231333.00;;;;5071707;28;20327;-72
2022/07/14 03:07:57;;;;;;;0.00;0.00;;;19.50;99.90;226.50;231333.00;;;;5072281;28;20667;-71
2022/07/14 03:10:25;;;;;;;0.00;0.00;;;19.30;99.90;226.50;231333.00;;;;5070952;28;20222;-71
2022/07/14 03:12:54;;;;;;;0.00;0.00;;;19.30;99.90;226.50;231333.00;;;;5072629;28;20189;-71
2022/07/14 03:15:24;;;;;;;0.00;0.00;;;19.20;99.90;226.50;231333.00;;;;5073433;28;20217;-71
2022/07/14 03:17:53;;;;;;;0.00;0.00;;;19.20;99.90;226.50;231333.00;;;;5071738;28;20276;-71
2022/07/14 03:20:21;;;;;;;0.00;0.00;;;19.10;99.90;226.50;231333.00;;;;5071338;28;20209;-71
2022/07/14 03:22:49;;;;;;;0.00;0.00;;;19.20;99.90;226.50;231333.00;;;;5070386;28;20200;-71
2022/07/14 03:25:21;;;;;;;0.00;0.00;;;19.10;99.90;226.50;231333.00;;;;5071368;28;20228;-71
2022/07/14 03:27:53;;;;;;;0.00;0.00;;;19.10;99.90;226.50;231333.00;;;;5070476;28;20197;-71
2022/07/14 03:30:26;;;;;;;0.00;0.00;;;19.10;99.90;226.50;231333.00;;;;5070274;28;20719;-71
2022/07/14 03:32:55;;;;;;;0.00;0.00;;;19.10;99.90;226.50;231333.00;;;;5070244;28;20672;-72
2022/07/14 03:35:24;;;;;;;0.00;0.00;;;19.20;99.90;226.50;231333.00;;;;5069842;28;20221;-72
2022/07/14 03:37:54;;;;;;;0.00;0.00;;;19.20;99.90;226.50;231333.00;;;;5070089;28;20190;-71
2022/07/14 03:40:42;;;;;;;0.00;0.00;;;19.30;99.90;226.50;231333.00;;;;5066965;28;20197;-71
2022/07/14 03:43:11;;;;;;;0.00;0.00;;;19.20;99.90;226.50;231333.00;;;;5050118;28;20199;-71
2022/07/14 03:45:40;;;;;;;0.00;0.00;;;19.00;99.90;226.50;231333.00;;;;5083722;28;20210;-72
2022/07/14 03:48:11;;;;;;;0.00;0.00;;;19.00;99.90;226.50;231333.00;;;;5068880;28;20754;-72
2022/07/14 03:50:44;;;;;;;0.00;0.00;;;19.10;99.90;226.50;231333.00;;;;5070234;28;20193;-72
2022/07/14 03:53:12;;;;;;;0.00;0.00;;;19.10;99.90;226.50;231333.00;;;;5070009;28;20228;-73
2022/07/14 03:55:42;;;;;;;0.00;0.00;;;19.20;99.90;226.50;231333.00;;;;5070326;28;20245;-73
2022/07/14 03:58:19;;;;;;;0.00;0.00;;;19.30;99.90;226.50;231333.00;;;;5071085;28;20190;-72
2022/07/14 04:00:47;;;;;;;0.00;0.00;;;19.20;99.90;226.50;231333.00;;;;5070397;28;20194;-73
2022/07/14 04:03:17;;;;;;;0.00;0.00;;;19.20;99.90;226.50;231333.00;;;;5069474;28;20189;-73
2022/07/14 04:05:46;;;;;;;0.00;0.00;;;19.20;99.90;226.50;231333.00;;;;5063833;28;20262;-73
2022/07/14 04:08:17;;;;;;;0.00;0.00;;;19.30;99.90;226.50;231333.00;;;;5069292;28;20194;-72
2022/07/14 04:10:49;;;;;;;0.00;0.00;;;19.10;99.90;226.50;231333.00;;;;5070226;28;20283;-73
2022/07/14 04:13:18;;;;;;;0.00;0.00;;;19.00;99.90;226.50;231333.00;;;;5070770;28;20219;-73
2022/07/14 04:15:47;;;;;;;0.00;0.00;;;19.00;99.90;226.50;231333.00;;;;5070239;28;20376;-73
2022/07/14 04:18:16;;;;;;;0.00;0.00;;;19.00;99.90;226.50;231333.00;;;;5082959;28;20195;-72
2022/07/14 04:20:49;;;;;;;0.00;0.00;;;19.00;99.90;226.50;231333.00;;;;5055277;28;20633;-73
2022/07/14 04:23:19;;;;;;;0.00;0.00;;;18.90;99.90;226.50;231333.00;;;;5069752;28;20677;-73
2022/07/14 04:25:47;;;;;;;0.00;0.00;;;19.00;99.90;226.50;231333.00;;;;5070223;28;20228;-73
2022/07/14 04:28:16;;;;;;;0.00;0.00;;;19.00;99.90;226.50;231333.00;;;;5069576;28;20224;-72
2022/07/14 04:30:46;;;;;;;0.00;0.00;;;19.00;99.90;226.50;231333.00;;;;5070140;28;20221;-72
2022/07/14 04:33:19;;;;;;;0.00;0.00;;;19.10;99.90;226.50;231333.00;;;;5069150;28;20738;-72
2022/07/14 04:35:48;;;;;;;0.00;0.00;;;19.20;99.90;226.50;231333.00;;;;5069891;28;20222;-73
2022/07/14 04:38:17;;;;;;;0.00;0.00;;;19.30;99.90;226.50;231333.00;;;;5069310;28;20198;-72
2022/07/14 04:40:50;;;;;;;0.00;0.00;;;19.50;99.90;226.50;231333.00;;;;5068997;28;20644;-72
2022/07/14 04:43:20;;;;;;;0.00;0.00;;;19.60;99.90;226.50;231333.00;;;;5069698;28;20285;-73
2022/07/14 04:45:50;;;;;;;0.00;0.00;;;19.60;99.90;226.50;231333.00;;;;5069297;28;20202;-72
2022/07/14 04:48:21;;;;;;;0.00;0.00;;;19.60;99.90;226.50;231333.00;;;;5069403;28;20209;-72
2022/07/14 04:53:37;;;;;;;0.00;0.00;;;19.20;99.90;226.50;231333.00;;;;5069808;28;20247;-73
2022/07/14 04:56:24;;;;;;;0.00;0.00;;;19.10;99.90;226.50;231333.00;;;;5050931;28;20252;-73
2022/07/14 04:58:59;;;;;;;0.00;0.00;;;19.00;99.90;226.50;231333.00;;;;5052159;28;20651;-72
2022/07/14 05:01:27;;;;;;;0.00;0.00;;;19.10;99.90;226.50;231333.00;;;;5053016;28;20201;-72
2022/07/14 05:03:57;;;;;;;0.00;0.00;;;19.20;99.90;226.50;231333.00;;;;5053162;28;20202;-73
2022/07/14 05:06:31;;;;;;;0.00;0.00;;;19.40;99.90;226.50;231333.00;;;;5058646;28;20266;-73
2022/07/14 05:09:00;;;;;;;0.00;0.00;;;19.50;99.90;226.50;231333.00;;;;5072604;28;20220;-73
2022/07/14 05:11:30;;;;;;;0.00;0.00;;;19.60;99.90;226.50;231333.00;;;;5073166;28;20829;-73
2022/07/14 05:13:58;;;;;;;0.00;0.00;;;19.80;99.90;226.50;231333.00;;;;5073069;28;20276;-72
2022/07/14 05:16:27;;;;;;;0.00;0.00;;;19.80;99.90;226.50;231333.00;;;;5072765;28;20227;-73
2022/07/14 05:18:57;;;;;;;0.00;0.00;;;19.90;99.90;226.50;231333.00;;;;5072510;28;20304;-72
2022/07/14 05:21:26;;;;;;;0.00;0.00;;;19.90;99.90;226.50;231333.00;;;;5072636;28;20202;-72
2022/07/14 05:23:55;;;;;;;0.00;0.00;;;19.90;99.90;226.50;231333.00;;;;5073760;28;20198;-71
2022/07/14 05:26:24;;;;;;;0.00;0.00;;;20.00;99.90;226.50;231333.00;;;;5074019;28;20212;-70
2022/07/14 05:28:52;;;;;;;0.00;0.00;;;20.00;99.90;226.50;231333.00;;;;5073280;28;20591;-73
2022/07/14 05:31:20;;;;;;;0.00;0.00;;;20.00;99.90;226.50;231333.00;;;;5073781;28;20185;-72
2022/07/14 05:33:51;;;;;;;0.00;0.00;;;20.10;99.90;226.50;231333.00;;;;5071551;28;20197;-72
2022/07/14 05:36:22;;;;;;;0.00;0.00;;;20.20;99.90;226.50;231333.00;;;;5088368;28;20225;-73
2022/07/14 05:38:51;;;;;;;0.00;0.00;;;20.30;99.90;226.50;231333.00;;;;5065704;28;20217;-72
2022/07/14 05:41:20;;;;;;;0.00;0.00;;;20.30;99.90;226.50;231333.00;;;;5087344;28;20211;-72
2022/07/14 05:43:49;;;;;;;0.00;0.00;;;19.90;99.90;226.50;231333.00;;;;5079129;28;20611;-72
2022/07/14 05:46:18;;;;;;;0.00;0.00;;;19.90;99.90;226.50;231333.00;;;;5064275;28;20210;-72
2022/07/14 05:48:47;;;;;;;0.00;0.00;;;20.00;99.90;226.50;231333.00;;;;5085715;28;20241;-72
2022/07/14 05:51:22;;;;;;;0.00;0.00;;;20.10;99.90;226.50;231333.00;;;;5053708;28;20222;-72
2022/07/14 05:53:53;;;;;;;0.00;0.00;;;20.20;99.90;226.50;231333.00;;;;5052684;28;20285;-72
2022/07/14 05:56:24;;;;;;;0.00;0.00;;;20.30;99.90;226.50;231333.00;;;;5052055;28;20222;-72
2022/07/14 05:58:52;;;;;;;0.00;0.00;;;20.40;99.90;226.50;231333.00;;;;5053513;28;20286;-73
2022/07/14 06:01:21;;;;;;;0.00;0.00;;;20.40;99.90;226.50;231333.00;;;;5068850;28;20608;-72
2022/07/14 06:03:56;;;;;;;0.00;0.00;;;20.40;99.90;226.50;231333.00;;;;5052167;28;20194;-72
2022/07/14 06:06:26;;;;;;;0.00;0.00;;;20.50;99.90;226.50;231333.00;;;;5052005;28;20572;-73
2022/07/14 06:08:55;;;;;;;0.00;0.00;;;20.50;99.90;226.50;231333.00;;;;5052944;28;20214;-73
2022/07/14 06:11:23;;;;;;;0.00;0.00;;;20.50;99.90;226.50;231333.00;;;;5055244;28;20289;-71
2022/07/14 06:13:52;;;;;;;0.00;0.00;;;20.50;99.90;226.50;231333.00;;;;5068367;28;20670;-71
2022/07/14 06:16:19;;;;;;;0.00;0.00;;;20.50;99.90;226.50;231333.00;;;;5084070;28;20300;-72
2022/07/14 06:18:47;;;;;;;0.00;0.00;;;20.50;99.90;226.50;231333.00;;;;5070635;28;20244;-72
2022/07/14 06:21:16;;;;;;;0.00;0.00;;;20.40;99.90;226.50;231333.00;;;;5068044;28;20732;-72
2022/07/14 06:23:45;;;;;;;0.00;0.00;;;20.40;99.90;226.50;231333.00;;;;5051848;28;20202;-72
2022/07/14 06:26:14;;;;;;;0.00;0.00;;;20.40;99.90;226.50;231333.00;;;;5068587;28;20199;-73
2022/07/14 06:28:46;;;;;;;0.00;0.00;;;20.40;99.90;226.50;231333.00;;;;5051756;28;20221;-72
2022/07/14 06:31:14;;;;;;;0.00;0.00;;;20.40;99.90;226.50;231333.00;;;;5056771;28;20206;-72
2022/07/14 06:33:43;;;;;;;0.00;0.00;;;20.40;99.90;226.50;231333.00;;;;5058320;28;20198;-72
2022/07/14 06:36:40;;;;;;;0.00;0.00;;;20.40;99.90;226.50;231333.00;;;;5033621;28;20234;-73
2022/07/14 06:39:11;;;;;;;0.00;0.00;;;20.30;99.90;226.50;231333.00;;;;5067472;28;20218;-72
2022/07/14 06:41:39;;;;;;;0.00;0.00;;;20.30;99.90;226.50;231333.00;;;;5051661;28;20618;-72
2022/07/14 06:44:11;;;;;;;0.00;0.00;;;20.20;99.90;226.50;231333.00;;;;5051426;28;20199;-72
2022/07/14 06:46:39;;;;;;;0.00;0.00;;;20.30;99.90;226.50;231333.00;;;;5051520;28;20198;-72
2022/07/14 06:49:07;;;;;;;0.00;0.00;;;20.30;99.90;226.50;231333.00;;;;5051555;28;20214;-72
2022/07/14 06:51:35;;;;;;;0.00;0.00;;;20.30;99.90;226.50;231333.00;;;;5052677;28;20187;-72
2022/07/14 06:54:04;;;;;;;0.00;0.00;;;20.30;99.90;226.50;231333.00;;;;5052468;28;20561;-72
2022/07/14 06:56:33;;;;;;;0.00;0.00;;;20.40;99.90;226.50;231333.00;;;;5052800;28;20194;-72
2022/07/14 06:59:01;;;;;;;0.00;0.00;;;20.40;99.90;226.50;231333.00;;;;5052349;28;20301;-72
2022/07/14 07:01:29;;;;;;;0.00;0.00;;;20.40;99.90;226.50;231333.00;;;;5052344;28;20658;-72
2022/07/14 07:03:57;;;;;;;0.00;0.00;;;20.40;99.90;226.50;231333.00;;;;5058526;28;20213;-72
2022/07/14 07:09:12;;;;;;;0.00;0.00;;;20.40;99.90;226.50;231333.00;;;;5051465;28;20214;-72
2022/07/14 07:11:43;;;;;;;0.00;0.00;;;20.40;99.90;226.50;231333.00;;;;5052363;28;20210;-72
2022/07/14 07:14:12;;;;;;;0.00;0.00;;;20.40;99.90;226.50;231333.00;;;;5052093;28;20194;-72
2022/07/14 07:16:40;;;;;;;0.00;0.00;;;20.50;99.90;226.50;231333.00;;;;5051861;28;20194;-72
2022/07/14 07:19:08;;;;;;;0.00;0.00;;;20.50;99.90;226.50;231333.00;;;;5051574;28;20233;-72
2022/07/14 07:21:36;;;;;;;0.00;0.00;;;20.60;99.90;226.50;231333.00;;;;5051226;28;20210;-72
2022/07/14 07:24:04;;;;;;;0.00;0.00;;;20.60;99.90;226.50;231333.00;;;;5052039;28;20183;-72
2022/07/14 07:26:35;;;;;;;0.00;0.00;;;20.60;99.90;226.50;231333.00;;;;5051750;28;20237;-72
2022/07/14 07:29:05;;;;;;;0.00;0.00;;;20.60;99.90;226.50;231333.00;;;;5051633;28;20202;-72
2022/07/14 07:31:35;;;;;;;0.00;0.00;;;20.60;99.90;226.50;231333.00;;;;5051662;28;20193;-72
2022/07/14 07:34:04;;;;;;;0.00;0.00;;;20.60;99.90;226.50;231333.00;;;;5052014;28;20228;-72
2022/07/14 07:36:32;;;;;;;0.00;0.00;;;20.70;99.90;226.50;231333.00;;;;5051680;28;20198;-72
2022/07/14 07:39:00;;;;;;;0.00;0.00;;;20.70;99.90;226.50;231333.00;;;;5051537;28;20226;-71
2022/07/14 07:41:28;;;;;;;0.00;0.00;;;20.70;99.90;226.50;231333.00;;;;5051405;28;20665;-71
2022/07/14 07:43:58;;;;;;;0.00;0.00;;;20.70;99.90;226.50;231333.00;;;;5050941;28;20190;-71
2022/07/14 07:46:27;;;;;;;0.00;0.00;;;20.60;99.90;226.50;231333.00;;;;5051383;28;20209;-71
2022/07/14 07:48:55;;;;;;;0.00;0.00;;;20.50;99.90;226.50;231333.00;;;;5051366;28;20222;-71
2022/07/14 07:51:23;;;;;;;0.00;0.00;;;20.60;99.90;226.50;231333.00;;;;5051550;28;20591;-71
2022/07/14 07:53:51;;;;;;;0.00;0.00;;;20.70;99.90;226.50;231333.00;;;;5051688;28;20205;-71
2022/07/14 07:56:19;;;;;;;0.00;0.00;;;20.90;99.90;226.50;231333.00;;;;5051403;28;20201;-71
2022/07/14 07:58:47;;;;;;;0.00;0.00;;;20.90;99.90;226.50;231333.00;;;;5051239;28;20600;-71
2022/07/14 08:01:15;;;;;;;0.00;0.00;;;21.00;99.90;226.50;231333.00;;;;5051529;28;20198;-71
2022/07/14 08:03:44;;;;;;;0.00;0.00;;;21.10;99.90;226.50;231333.00;;;;5051720;28;20217;-71
2022/07/14 08:06:13;;;;;;;0.00;0.00;;;21.30;99.90;226.50;231333.00;;;;5051524;28;20641;-71
2022/07/14 08:09:01;;;;;;;0.00;0.00;;;21.40;99.90;226.50;231333.00;;;;5051198;28;20226;-71
2022/07/14 08:11:29;;;;;;;0.00;0.00;;;21.50;99.90;226.50;231333.00;;;;5051396;28;20198;-71
2022/07/14 08:13:57;;;;;;;0.00;0.00;;;21.60;99.90;226.50;231333.00;;;;5051705;28;20201;-71
2022/07/14 08:16:25;;;;;;;0.00;0.00;;;21.70;99.90;226.50;231333.00;;;;5051596;28;20285;-71
2022/07/14 08:18:55;;;;;;;0.00;0.00;;;21.60;99.90;226.50;231333.00;;;;5051101;28;20232;-71
2022/07/14 08:21:23;;;;;;;0.00;0.00;;;21.80;99.90;226.50;231333.00;;;;5050349;28;20260;-71
2022/07/14 08:23:52;;;;;;;0.00;0.00;;;22.00;99.90;226.50;231333.00;;;;5052074;28;20182;-71
2022/07/14 08:26:20;;;;;;;0.00;0.00;;;22.20;99.90;226.50;231333.00;;;;5050011;28;20221;-71
2022/07/14 08:28:49;;;;;;;0.00;0.00;;;22.40;99.90;226.50;231333.00;;;;5051338;28;20214;-71
2022/07/14 08:31:17;;;;;;;0.00;0.00;;;22.10;99.90;226.50;231333.00;;;;5051126;28;20198;-71
2022/07/14 08:33:45;;;;;;;0.00;0.00;;;22.30;99.90;226.50;231333.00;;;;5053989;28;20191;-71
2022/07/14 08:36:15;;;;;;;0.00;0.00;;;22.40;99.90;226.50;231333.00;;;;5055120;28;20191;-71
2022/07/14 08:38:43;;;;;;;0.00;0.00;;;22.50;99.90;226.50;231333.00;;;;5054545;28;20229;-71
2022/07/14 08:41:11;;;;;;;0.00;0.00;;;22.40;99.90;226.50;231333.00;;;;5060548;28;20700;-71
2022/07/14 08:43:40;;;;;;;0.00;0.00;;;22.30;99.90;226.50;231333.00;;;;5069836;28;20195;-71
2022/07/14 08:46:08;;;;;;;0.00;0.00;;;22.20;99.90;226.50;231333.00;;;;5069536;28;20198;-71
2022/07/14 08:48:36;;;;;;;0.00;0.00;;;22.10;99.90;226.50;231333.00;;;;5065980;28;20214;-71
2022/07/14 08:51:06;;;;;;;0.00;0.00;;;21.90;99.90;226.50;231333.00;;;;5068223;28;20196;-71
2022/07/14 08:53:38;;;;;;;0.00;0.00;;;22.00;99.90;226.50;231333.00;;;;5066899;28;20277;-71
2022/07/14 08:56:07;;;;;;;0.00;0.00;;;21.90;99.90;226.50;231333.00;;;;5069459;28;20190;-71
2022/07/14 08:58:35;;;;;;;0.00;0.00;;;21.80;99.90;226.50;231333.00;;;;5068102;28;20248;-71
2022/07/14 09:01:03;;;;;;;0.00;0.00;;;21.80;99.90;226.50;231333.00;;;;5065677;28;20220;-71
2022/07/14 09:03:33;;;;;;;0.00;0.00;;;21.90;99.90;226.50;231333.00;;;;5065671;28;20273;-71
2022/07/14 09:06:52;;;;;;;0.00;0.00;;;21.90;99.90;226.50;231333.00;;;;5068223;28;20203;-71
2022/07/14 09:09:24;;;;;;;0.00;0.00;;;21.90;99.90;226.50;231333.00;;;;5057608;28;20764;-72
2022/07/14 09:12:00;;;;;;;0.00;0.00;;;22.00;99.90;226.50;231333.00;;;;5054944;28;20186;-71
2022/07/14 09:15:44;;;;;;;0.00;0.00;;;22.20;99.90;226.50;231333.00;;;;5054438;28;20196;-71
2022/07/14 09:17:25;;;;;;;0.00;0.00;;;22.30;99.90;226.50;231333.00;;;;5053827;28;20285;-72
2022/07/14 09:20:08;;;;;;;0.00;0.00;;;22.20;99.90;226.50;231333.00;;;;5054256;28;20256;-71
2022/07/14 09:22:38;;;;;;;0.00;0.00;;;22.10;99.90;226.50;231333.00;;;;5054551;28;20545;-72
2022/07/14 09:25:11;;;;;;;0.00;0.00;;;22.10;99.90;226.50;231333.00;;;;5053871;28;20195;-72
2022/07/14 09:27:41;;;;;;;0.00;0.00;;;22.20;99.90;226.50;231333.00;;;;5055948;28;20194;-71
2022/07/14 09:30:11;;;;;;;0.00;0.00;;;22.30;99.90;226.50;231333.00;;;;5054734;28;20215;-72
2022/07/14 09:32:50;;;;;;;0.00;0.00;;;22.50;99.90;226.50;231333.00;;;;5054276;28;20205;-72
2022/07/14 09:35:22;;;;;;;0.00;0.00;;;22.50;99.90;226.50;231333.00;;;;5053749;28;20195;-72
2022/07/14 09:37:52;;;;;;;0.00;0.00;;;22.70;99.90;226.50;231333.00;;;;5053502;28;20187;-71
2022/07/14 09:40:29;;;;;;;0.00;0.00;;;22.70;99.90;226.50;231333.00;;;;5053455;28;20226;-72
2022/07/14 09:43:05;;;;;;;0.00;0.00;;;22.90;99.90;226.50;231333.00;;;;5061052;28;20629;-71
2022/07/14 09:45:36;;;;;;;0.00;0.00;;;22.90;99.90;226.50;231333.00;;;;5055408;28;20199;-72
2022/07/14 09:48:07;;;;;;;0.00;0.00;;;23.00;99.90;226.50;231333.00;;;;5053671;28;20684;-72
2022/07/14 09:50:47;;;;;;;0.00;0.00;;;23.10;99.90;226.50;231333.00;;;;5059537;28;20247;-72
2022/07/14 09:53:24;;;;;;;0.00;0.00;;;23.40;99.90;226.50;231333.00;;;;5072903;28;20198;-72
2022/07/14 09:55:57;;;;;;;0.00;0.00;;;23.50;99.90;226.50;231333.00;;;;5073875;28;20197;-71
2022/07/14 09:58:29;;;;;;;0.00;0.00;;;23.70;99.90;226.50;231333.00;;;;5072726;28;20217;-72
2022/07/14 10:01:08;;;;;;;0.00;0.00;;;23.70;99.90;226.50;231333.00;;;;5073672;28;20192;-71
2022/07/14 10:03:40;;;;;;;0.00;0.00;;;23.70;99.90;226.50;231333.00;;;;5089373;28;20364;-71
2022/07/14 10:06:10;;;;;;;0.00;0.00;;;23.70;99.90;226.50;231333.00;;;;5075652;28;20196;-72
2022/07/14 10:09:01;;;;;;;0.00;0.00;;;23.80;99.90;226.50;231333.00;;;;5080809;28;20217;-71
2022/07/14 10:11:31;;;;;;;0.00;0.00;;;23.90;99.90;226.50;231333.00;;;;5091302;28;20673;-71
2022/07/14 10:14:00;;;;;;;0.00;0.00;;;24.00;99.90;226.50;231333.00;;;;5073300;28;20201;-72
2022/07/14 10:16:33;;;;;;;0.00;0.00;;;24.10;99.90;226.50;231333.00;;;;5072877;28;20328;-72
2022/07/14 10:19:03;;;;;;;0.00;0.00;;;24.20;99.90;226.50;231333.00;;;;5072482;28;20244;-71
2022/07/14 10:21:43;;;;;;;0.00;0.00;;;24.30;99.90;226.50;231333.00;;;;5072836;28;20282;-71
2022/07/14 10:24:12;;;;;;;0.00;0.00;;;24.30;99.90;226.50;231333.00;;;;5072248;28;20190;-71
2022/07/14 10:26:43;;;;;;;0.00;0.00;;;24.30;99.90;226.50;231333.00;;;;5072665;28;20193;-71
2022/07/14 10:29:11;;;;;;;0.00;0.00;;;24.40;99.90;226.50;231333.00;;;;5072542;28;20580;-71
2022/07/14 10:31:59;;;;;;;0.00;0.00;;;24.50;99.90;226.50;231333.00;;;;5074545;28;20194;-71
2022/07/14 10:34:38;;;;;;;0.00;0.00;;;24.50;99.90;226.50;231333.00;;;;5074174;28;20192;-71
2022/07/14 10:37:14;;;;;;;0.00;0.00;;;24.50;99.90;226.50;231333.00;;;;5073508;28;20197;-71
2022/07/14 10:39:50;;;;;;;0.00;0.00;;;24.70;99.90;226.50;231333.00;;;;5072553;28;20224;-71
2022/07/14 10:42:31;;;;;;;0.00;0.00;;;24.80;99.90;226.50;231333.00;;;;5072661;28;20653;-71
2022/07/14 10:45:02;;;;;;;0.00;0.00;;;24.80;99.90;226.50;231333.00;;;;5072222;28;20190;-71
2022/07/14 10:47:48;;;;;;;0.00;0.00;;;24.70;99.90;226.50;231333.00;;;;5072209;28;20683;-71
2022/07/14 10:50:21;;;;;;;0.00;0.00;;;24.70;99.90;226.50;231333.00;;;;5072203;28;20209;-71
2022/07/14 10:53:00;;;;;;;0.00;0.00;;;24.70;99.90;226.50;231333.00;;;;5072802;28;20198;-72
2022/07/14 10:55:38;;;;;;;0.00;0.00;;;24.70;99.90;226.50;231333.00;;;;5072158;28;20201;-72
2022/07/14 10:58:30;;;;;;;0.00;0.00;;;24.70;99.90;226.50;231333.00;;;;5072073;28;20196;-72
2022/07/14 11:00:59;;;;;;;0.00;0.00;;;24.70;99.90;226.50;231333.00;;;;5072341;28;20192;-72
2022/07/14 11:03:48;;;;;;;0.00;0.00;;;24.70;99.90;226.50;231333.00;;;;5071814;28;20194;-72